Time;durP1;ratioP1;P1;durP2;ratioP2;P2;SDS_P1;SDS_P2;PMS_P1;PMS_P2;Temp;Humidity;BMP_temperature;BMP_pressure;BME280_temperature;BME280_humidity;BME280_pressure;Samples;Min_cycle;Max_cycle;Signal;HPM_P1;HPM_P2
2021/07/01 00:02:04;;;;;;;26.60;8.82;;;14.70;99.90;;;;;;5086461;28;20036;-63
2021/07/01 00:04:30;;;;;;;24.13;8.65;;;14.70;99.90;;;;;;5084366;28;20111;-63
2021/07/01 00:06:56;;;;;;;28.65;9.77;;;14.60;99.90;;;;;;5081246;28;20486;-63
2021/07/01 00:09:24;;;;;;;26.52;8.25;;;14.60;99.90;;;;;;5082446;28;20043;-63
2021/07/01 00:11:51;;;;;;;25.63;8.60;;;14.60;99.90;;;;;;5082504;28;20131;-63
2021/07/01 00:14:18;;;;;;;29.77;10.80;;;14.60;99.90;;;;;;5082442;28;20561;-63
2021/07/01 00:16:45;;;;;;;20.63;9.23;;;14.70;99.90;;;;;;5081654;28;20078;-63
2021/07/01 00:19:10;;;;;;;26.58;8.90;;;14.70;99.90;;;;;;5079762;28;20040;-63
2021/07/01 00:21:36;;;;;;;29.25;9.57;;;14.70;99.90;;;;;;5084021;28;20039;-63
2021/07/01 00:24:02;;;;;;;21.52;8.88;;;14.60;99.90;;;;;;5083063;28;20126;-63
2021/07/01 00:26:27;;;;;;;28.17;9.13;;;14.70;99.90;;;;;;5081929;28;20024;-63
2021/07/01 00:28:53;;;;;;;23.63;8.50;;;14.60;99.90;;;;;;5081167;28;20036;-63
2021/07/01 00:31:19;;;;;;;29.23;10.00;;;14.60;99.90;;;;;;5084116;28;20470;-63
2021/07/01 00:33:45;;;;;;;24.83;9.68;;;14.60;99.90;;;;;;5080491;28;20047;-64
2021/07/01 00:36:11;;;;;;;25.20;8.10;;;14.60;99.90;;;;;;5081769;28;20051;-63
2021/07/01 00:38:37;;;;;;;30.42;9.50;;;14.60;99.90;;;;;;5082708;28;20051;-64
2021/07/01 00:41:03;;;;;;;25.92;8.65;;;14.60;99.90;;;;;;5079854;28;20068;-63
2021/07/01 00:43:29;;;;;;;26.05;9.02;;;14.60;99.90;;;;;;5083098;28;20045;-63
2021/07/01 00:45:55;;;;;;;29.08;9.98;;;14.50;99.90;;;;;;5077761;28;20080;-63
2021/07/01 00:48:20;;;;;;;23.02;9.15;;;14.50;99.90;;;;;;5084042;28;20097;-64
2021/07/01 00:50:46;;;;;;;26.58;10.00;;;14.50;99.90;;;;;;5081637;28;20474;-64
2021/07/01 00:53:12;;;;;;;22.88;9.10;;;14.60;99.90;;;;;;5081091;28;20039;-64
2021/07/01 00:55:38;;;;;;;34.05;10.23;;;14.60;99.90;;;;;;5082018;28;20130;-63
2021/07/01 00:58:05;;;;;;;23.20;9.20;;;14.50;99.90;;;;;;5081634;28;20037;-64
2021/07/01 01:02:58;;;;;;;28.55;9.57;;;14.60;99.90;;;;;;5078827;28;21140;-64
2021/07/01 01:05:23;;;;;;;25.98;9.13;;;14.60;99.90;;;;;;5081921;28;20487;-64
2021/07/01 01:08:04;;;;;;;28.88;9.43;;;14.60;99.90;;;;;;5084573;28;20035;-63
2021/07/01 01:10:30;;;;;;;31.77;9.52;;;14.50;99.90;;;;;;5090230;28;20033;-63
2021/07/01 01:12:56;;;;;;;31.92;9.07;;;14.50;99.90;;;;;;5085035;28;20048;-63
2021/07/01 01:15:22;;;;;;;28.90;8.70;;;14.50;99.90;;;;;;5085352;28;20505;-63
2021/07/01 01:17:47;;;;;;;25.80;10.02;;;14.50;99.90;;;;;;5086471;28;20078;-63
2021/07/01 01:20:14;;;;;;;22.60;8.52;;;14.50;99.90;;;;;;5084335;28;20517;-63
2021/07/01 01:22:40;;;;;;;26.77;9.35;;;14.60;99.90;;;;;;5084561;28;20065;-64
2021/07/01 01:25:06;;;;;;;32.30;9.82;;;14.60;99.90;;;;;;5086662;28;20571;-64
2021/07/01 01:27:32;;;;;;;34.00;9.57;;;14.50;99.90;;;;;;5081856;28;20043;-64
2021/07/01 01:29:58;;;;;;;31.35;10.35;;;14.50;99.90;;;;;;5085041;28;20075;-64
2021/07/01 01:32:24;;;;;;;31.48;10.13;;;14.60;99.90;;;;;;5080831;28;20044;-64
2021/07/01 01:34:50;;;;;;;29.17;10.23;;;14.60;99.90;;;;;;5080344;28;20044;-64
2021/07/01 01:37:15;;;;;;;29.58;9.63;;;14.60;99.90;;;;;;5081171;28;20039;-64
2021/07/01 01:39:51;;;;;;;30.35;9.85;;;14.50;99.90;;;;;;5079702;28;20040;-64
2021/07/01 01:42:18;;;;;;;27.40;8.77;;;14.60;99.90;;;;;;5080643;28;20038;-64
2021/07/01 01:44:44;;;;;;;38.30;9.95;;;14.50;99.90;;;;;;5080485;28;20040;-64
2021/07/01 01:47:17;;;;;;;25.80;10.35;;;14.60;99.90;;;;;;5081485;28;20040;-64
2021/07/01 01:49:44;;;;;;;32.40;11.30;;;14.50;99.90;;;;;;5076575;28;20086;-64
2021/07/01 01:52:10;;;;;;;31.52;10.73;;;14.50;99.90;;;;;;5082531;28;20043;-64
2021/07/01 01:54:35;;;;;;;32.92;9.93;;;14.50;99.90;;;;;;5082397;28;20036;-63
2021/07/01 01:57:01;;;;;;;32.72;10.07;;;14.50;99.90;;;;;;5078401;28;20045;-64
2021/07/01 01:59:27;;;;;;;30.67;9.45;;;14.50;99.90;;;;;;5083850;28;20040;-64
2021/07/01 02:01:53;;;;;;;25.75;9.70;;;14.50;99.90;;;;;;5080938;28;20040;-63
2021/07/01 02:04:18;;;;;;;24.95;9.88;;;14.50;99.90;;;;;;5080481;28;20036;-64
2021/07/01 02:06:44;;;;;;;23.67;9.18;;;14.50;99.90;;;;;;5081056;28;20036;-63
2021/07/01 02:09:09;;;;;;;23.42;9.25;;;14.50;99.90;;;;;;5100615;28;20036;-63
2021/07/01 02:11:35;;;;;;;24.80;9.43;;;14.50;99.90;;;;;;5082624;28;20051;-63
2021/07/01 02:14:01;;;;;;;25.90;8.90;;;14.60;99.90;;;;;;5079716;28;20040;-64
2021/07/01 02:16:27;;;;;;;26.27;9.45;;;14.50;99.90;;;;;;5080892;28;20036;-64
2021/07/01 02:18:53;;;;;;;18.63;8.40;;;14.50;99.90;;;;;;5080015;28;20040;-63
2021/07/01 02:21:19;;;;;;;31.40;10.43;;;14.60;99.90;;;;;;5081313;28;20085;-64
2021/07/01 02:23:45;;;;;;;25.25;10.30;;;14.60;99.90;;;;;;5088009;28;20032;-63
2021/07/01 02:26:11;;;;;;;21.65;10.98;;;14.60;99.90;;;;;;5081254;28;20052;-63
2021/07/01 02:28:40;;;;;;;25.75;10.18;;;14.50;99.90;;;;;;5084091;28;20655;-63
2021/07/01 02:31:06;;;;;;;24.73;10.05;;;14.60;99.90;;;;;;5085923;28;20036;-63
2021/07/01 02:33:32;;;;;;;22.80;9.80;;;14.50;99.90;;;;;;5087471;28;20032;-63
2021/07/01 02:35:59;;;;;;;23.60;10.45;;;14.50;99.90;;;;;;5081723;28;20044;-63
2021/07/01 02:38:25;;;;;;;22.52;9.27;;;14.50;99.90;;;;;;5082394;28;20039;-63
2021/07/01 02:40:50;;;;;;;29.05;11.35;;;14.50;99.90;;;;;;5083340;28;20036;-63
2021/07/01 02:43:18;;;;;;;23.02;10.90;;;14.50;99.90;;;;;;5083595;28;20041;-64
2021/07/01 02:45:44;;;;;;;19.70;10.65;;;14.50;99.90;;;;;;5090973;28;20116;-63
2021/07/01 02:48:10;;;;;;;23.10;10.48;;;14.50;99.90;;;;;;5081794;28;20103;-63
2021/07/01 02:50:36;;;;;;;19.92;9.85;;;14.50;99.90;;;;;;5086760;28;20386;-63
2021/07/01 02:53:02;;;;;;;21.58;10.10;;;14.50;99.90;;;;;;5081581;28;20039;-63
2021/07/01 02:55:27;;;;;;;31.73;12.27;;;14.50;99.90;;;;;;5080779;28;20051;-64
2021/07/01 02:57:53;;;;;;;23.58;10.45;;;14.50;99.90;;;;;;5083665;28;20039;-64
2021/07/01 03:00:19;;;;;;;28.00;11.93;;;14.50;99.90;;;;;;5083528;28;20059;-64
2021/07/01 03:02:45;;;;;;;25.50;10.85;;;14.50;99.90;;;;;;5086068;28;20070;-64
2021/07/01 03:05:11;;;;;;;24.48;11.65;;;14.50;99.90;;;;;;5082682;28;20467;-64
2021/07/01 03:07:37;;;;;;;27.52;11.00;;;14.50;99.90;;;;;;5085998;28;20051;-64
2021/07/01 03:10:03;;;;;;;29.60;10.93;;;14.40;99.90;;;;;;5086966;28;20699;-63
2021/07/01 03:12:29;;;;;;;25.95;11.23;;;14.50;99.90;;;;;;5084244;28;20044;-63
2021/07/01 03:14:55;;;;;;;28.10;12.05;;;14.50;99.90;;;;;;5082928;28;20055;-64
2021/07/01 03:17:21;;;;;;;21.55;10.23;;;14.50;99.90;;;;;;5083212;28;20474;-64
2021/07/01 03:19:47;;;;;;;29.23;11.68;;;14.50;99.90;;;;;;5081676;28;20055;-63
2021/07/01 03:22:13;;;;;;;22.38;10.23;;;14.50;99.90;;;;;;5083045;28;20482;-64
2021/07/01 03:24:39;;;;;;;25.02;10.15;;;14.50;99.90;;;;;;5084683;28;20051;-64
2021/07/01 03:27:05;;;;;;;25.08;11.07;;;14.50;99.90;;;;;;5083507;28;20191;-64
2021/07/01 03:29:32;;;;;;;26.05;11.32;;;14.50;99.90;;;;;;5083819;28;20050;-64
2021/07/01 03:31:58;;;;;;;24.92;10.98;;;14.50;99.90;;;;;;5080398;28;20812;-63
2021/07/01 03:34:24;;;;;;;24.52;11.32;;;14.60;99.90;;;;;;5083891;28;20044;-64
2021/07/01 03:36:50;;;;;;;24.02;11.02;;;14.60;99.90;;;;;;5083100;28;20036;-64
2021/07/01 03:39:16;;;;;;;25.10;12.10;;;14.60;99.90;;;;;;5083877;28;20036;-63
2021/07/01 03:41:42;;;;;;;22.92;11.15;;;14.50;99.90;;;;;;5084147;28;20056;-63
2021/07/01 03:44:10;;;;;;;20.60;11.27;;;14.60;99.90;;;;;;5081409;28;20043;-64
2021/07/01 03:46:37;;;;;;;19.55;11.05;;;14.60;99.90;;;;;;5082574;28;20040;-63
2021/07/01 03:49:03;;;;;;;26.88;10.95;;;14.60;99.90;;;;;;5082386;28;20052;-64
2021/07/01 03:51:29;;;;;;;21.17;10.85;;;14.60;99.90;;;;;;5084485;28;20036;-64
2021/07/01 03:53:55;;;;;;;20.92;10.27;;;14.60;99.90;;;;;;5081026;28;20086;-64
2021/07/01 03:56:20;;;;;;;18.98;10.63;;;14.70;99.90;;;;;;5082193;28;20031;-64
2021/07/01 03:58:46;;;;;;;21.48;11.25;;;14.60;99.90;;;;;;5085289;28;20040;-63
2021/07/01 04:01:12;;;;;;;20.65;10.98;;;14.60;99.90;;;;;;5084569;28;20410;-64
2021/07/01 04:03:37;;;;;;;22.75;11.52;;;14.70;99.90;;;;;;5085581;28;20044;-63
2021/07/01 04:06:03;;;;;;;20.15;10.70;;;14.60;99.90;;;;;;5083669;28;20040;-63
2021/07/01 04:08:29;;;;;;;25.52;12.23;;;14.60;99.90;;;;;;5084721;28;20127;-63
2021/07/01 04:10:55;;;;;;;22.25;12.45;;;14.60;99.90;;;;;;5082930;28;20032;-64
2021/07/01 04:13:21;;;;;;;30.23;13.48;;;14.70;99.90;;;;;;5083262;28;20036;-64
2021/07/01 04:15:48;;;;;;;23.98;12.10;;;14.70;99.90;;;;;;5080051;28;20097;-63
2021/07/01 04:18:18;;;;;;;26.45;12.07;;;14.70;99.90;;;;;;5077575;28;20032;-64
2021/07/01 04:20:44;;;;;;;21.60;11.95;;;14.70;99.90;;;;;;5079935;28;21549;-63
2021/07/01 04:23:10;;;;;;;22.10;12.27;;;14.70;99.90;;;;;;5079163;28;20028;-64
2021/07/01 04:25:39;;;;;;;18.48;11.50;;;14.70;99.90;;;;;;5080301;28;20038;-63
2021/07/01 04:28:04;;;;;;;22.33;12.40;;;14.70;99.90;;;;;;5083284;28;20474;-63
2021/07/01 04:30:30;;;;;;;29.23;12.82;;;14.80;99.90;;;;;;5084778;28;20058;-63
2021/07/01 04:32:56;;;;;;;23.02;13.13;;;14.70;99.90;;;;;;5081487;28;20133;-63
2021/07/01 04:35:22;;;;;;;29.85;14.20;;;14.80;99.90;;;;;;5079628;28;20379;-64
2021/07/01 04:37:49;;;;;;;24.23;13.98;;;14.80;99.90;;;;;;5080379;28;20039;-64
2021/07/01 04:40:15;;;;;;;22.23;13.50;;;14.80;99.90;;;;;;5083613;28;20040;-63
2021/07/01 04:42:41;;;;;;;23.25;12.93;;;14.80;99.90;;;;;;5086105;28;20052;-64
2021/07/01 04:45:08;;;;;;;25.33;13.73;;;14.80;99.90;;;;;;5086847;28;20051;-64
2021/07/01 04:47:34;;;;;;;24.75;13.63;;;14.80;99.90;;;;;;5086101;28;20032;-63
2021/07/01 04:50:02;;;;;;;25.25;13.25;;;14.80;99.90;;;;;;5086487;28;20740;-64
2021/07/01 04:52:28;;;;;;;27.67;14.30;;;14.80;99.90;;;;;;5088378;28;20063;-63
2021/07/01 04:54:54;;;;;;;22.65;13.30;;;14.80;99.90;;;;;;5084577;28;20435;-64
2021/07/01 04:57:20;;;;;;;26.60;13.82;;;14.80;99.90;;;;;;5088379;28;20094;-63
2021/07/01 04:59:46;;;;;;;27.38;13.30;;;14.80;99.90;;;;;;5088519;28;20043;-64
2021/07/01 05:02:13;;;;;;;24.35;12.35;;;14.80;99.90;;;;;;5089203;28;20036;-64
2021/07/01 05:04:39;;;;;;;31.85;13.68;;;14.90;99.90;;;;;;5084615;28;20054;-63
2021/07/01 05:07:04;;;;;;;28.25;14.52;;;14.90;99.90;;;;;;5087161;28;20036;-64
2021/07/01 05:09:30;;;;;;;33.78;16.08;;;14.90;99.90;;;;;;5088014;28;20032;-64
2021/07/01 05:11:56;;;;;;;30.33;14.27;;;14.90;99.90;;;;;;5083210;28;20392;-64
2021/07/01 05:14:21;;;;;;;27.88;13.57;;;14.90;99.90;;;;;;5086555;28;20524;-64
2021/07/01 05:16:48;;;;;;;32.53;16.10;;;15.00;99.90;;;;;;5085117;28;20494;-63
2021/07/01 05:19:14;;;;;;;28.58;14.30;;;15.00;99.90;;;;;;5084584;28;20119;-64
2021/07/01 05:21:40;;;;;;;31.17;15.70;;;15.00;99.90;;;;;;5084449;28;20127;-63
2021/07/01 05:24:06;;;;;;;30.10;13.82;;;14.90;99.90;;;;;;5084548;28;20143;-63
2021/07/01 05:26:32;;;;;;;31.48;14.18;;;15.00;99.90;;;;;;5083862;28;20420;-64
2021/07/01 05:28:58;;;;;;;30.05;14.32;;;15.00;99.90;;;;;;5086658;28;20086;-63
2021/07/01 05:31:23;;;;;;;29.23;14.70;;;15.00;99.90;;;;;;5085506;28;20041;-63
2021/07/01 05:33:49;;;;;;;31.95;14.07;;;15.00;99.90;;;;;;5082791;28;20036;-64
2021/07/01 05:36:16;;;;;;;26.95;13.27;;;14.90;99.90;;;;;;5087998;28;20509;-63
2021/07/01 05:38:42;;;;;;;26.52;14.43;;;15.00;99.90;;;;;;5084947;28;20093;-63
2021/07/01 05:41:09;;;;;;;27.88;13.55;;;15.00;99.90;;;;;;5086559;28;20048;-64
2021/07/01 05:43:34;;;;;;;36.13;15.45;;;15.00;99.90;;;;;;5087601;28;20059;-64
2021/07/01 05:46:02;;;;;;;36.10;14.18;;;15.00;99.90;;;;;;5090913;28;20079;-63
2021/07/01 05:48:28;;;;;;;34.20;15.15;;;15.00;99.90;;;;;;5088505;28;20133;-63
2021/07/01 05:53:28;;;;;;;28.25;14.57;;;15.00;99.90;;;;;;5087826;28;20045;-63
2021/07/01 05:55:53;;;;;;;27.00;14.65;;;15.10;99.90;;;;;;5086283;28;20097;-63
2021/07/01 05:58:22;;;;;;;35.35;14.80;;;15.00;99.90;;;;;;5085405;28;20147;-63
2021/07/01 06:00:48;;;;;;;33.17;15.70;;;15.00;99.90;;;;;;5085389;28;20044;-64
2021/07/01 06:03:14;;;;;;;31.85;15.75;;;15.00;99.90;;;;;;5089320;28;20043;-63
2021/07/01 06:05:45;;;;;;;34.53;16.00;;;15.10;99.90;;;;;;5083112;28;20044;-63
2021/07/01 06:08:13;;;;;;;31.17;15.40;;;15.10;99.90;;;;;;5088864;28;20098;-63
2021/07/01 06:10:42;;;;;;;28.92;15.45;;;15.10;99.90;;;;;;5096416;28;20050;-63
2021/07/01 06:13:09;;;;;;;34.53;15.90;;;15.10;99.90;;;;;;5089224;28;20503;-63
2021/07/01 06:15:36;;;;;;;34.10;14.85;;;15.10;99.90;;;;;;5088140;28;20040;-63
2021/07/01 06:18:02;;;;;;;38.25;16.85;;;15.10;99.90;;;;;;5086553;28;20512;-63
2021/07/01 06:20:29;;;;;;;34.08;15.77;;;15.10;99.90;;;;;;5087157;28;20066;-63
2021/07/01 06:22:55;;;;;;;33.97;16.63;;;15.10;99.90;;;;;;5086894;28;20032;-63
2021/07/01 06:25:23;;;;;;;30.67;15.70;;;15.20;99.90;;;;;;5085686;28;20102;-62
2021/07/01 06:27:49;;;;;;;36.60;16.30;;;15.10;99.90;;;;;;5080989;28;20035;-63
2021/07/01 06:32:47;;;;;;;34.25;16.35;;;15.20;99.90;;;;;;5081316;28;20414;-62
2021/07/01 06:35:14;;;;;;;28.52;14.98;;;15.20;99.90;;;;;;5082333;28;20044;-62
2021/07/01 06:37:42;;;;;;;30.17;15.50;;;15.30;99.90;;;;;;5083429;28;20041;-63
2021/07/01 06:40:12;;;;;;;28.98;15.60;;;15.20;99.90;;;;;;5085955;28;20117;-63
2021/07/01 06:42:45;;;;;;;31.05;15.88;;;15.20;99.90;;;;;;5084493;28;20036;-63
2021/07/01 06:45:12;;;;;;;30.08;16.52;;;15.20;99.90;;;;;;5083201;28;20040;-62
2021/07/01 06:47:39;;;;;;;35.75;17.40;;;15.20;99.90;;;;;;5080718;28;20078;-62
2021/07/01 06:50:06;;;;;;;26.55;15.50;;;15.20;99.90;;;;;;5082620;28;20042;-63
2021/07/01 06:52:32;;;;;;;30.10;16.30;;;15.30;99.90;;;;;;5084227;28;20036;-63
2021/07/01 06:54:58;;;;;;;32.47;14.63;;;15.30;99.90;;;;;;5082516;28;20111;-63
2021/07/01 06:57:25;;;;;;;36.08;17.02;;;15.30;99.90;;;;;;5085498;28;20043;-63
2021/07/01 06:59:52;;;;;;;28.40;16.08;;;15.30;99.90;;;;;;5080186;28;20048;-63
2021/07/01 07:02:18;;;;;;;32.45;16.30;;;15.30;99.90;;;;;;5085659;28;20035;-63
2021/07/01 07:04:45;;;;;;;32.63;17.73;;;15.40;99.90;;;;;;5078438;28;20101;-63
2021/07/01 07:07:12;;;;;;;30.77;17.55;;;15.40;99.90;;;;;;5085059;28;20090;-63
2021/07/01 07:09:39;;;;;;;32.60;17.92;;;15.50;99.90;;;;;;5088216;28;20067;-63
2021/07/01 07:12:05;;;;;;;29.23;16.55;;;15.50;99.90;;;;;;5085099;28;20065;-63
2021/07/01 07:14:31;;;;;;;24.05;16.05;;;15.50;99.90;;;;;;5080366;28;20028;-63
2021/07/01 07:16:58;;;;;;;30.48;16.45;;;15.60;99.90;;;;;;5080727;28;20108;-63
2021/07/01 07:19:29;;;;;;;31.75;17.77;;;15.70;99.90;;;;;;5080208;28;20047;-63
2021/07/01 07:22:03;;;;;;;30.65;17.17;;;15.70;99.90;;;;;;5080475;28;21416;-63
2021/07/01 07:24:34;;;;;;;36.87;17.43;;;15.80;99.90;;;;;;5083494;28;20135;-63
2021/07/01 07:27:03;;;;;;;25.15;15.18;;;15.90;99.90;;;;;;5082756;28;20143;-63
2021/07/01 07:29:36;;;;;;;30.05;17.65;;;16.00;99.90;;;;;;5081270;28;20497;-63
2021/07/01 07:32:04;;;;;;;27.30;16.20;;;16.00;99.90;;;;;;5081519;28;20052;-63
2021/07/01 07:34:31;;;;;;;25.65;16.98;;;16.00;99.90;;;;;;5084415;28;20048;-63
2021/07/01 07:36:57;;;;;;;26.13;15.70;;;16.10;99.90;;;;;;5085820;28;20073;-63
2021/07/01 07:39:25;;;;;;;24.00;15.20;;;16.10;99.90;;;;;;5084290;28;20442;-63
2021/07/01 07:41:53;;;;;;;31.70;15.98;;;16.20;99.90;;;;;;5079631;28;20040;-63
2021/07/01 07:44:19;;;;;;;28.35;17.13;;;16.30;99.90;;;;;;5081863;28;20368;-63
2021/07/01 07:46:48;;;;;;;25.77;16.80;;;16.40;99.90;;;;;;5079783;28;20040;-63
2021/07/01 07:49:14;;;;;;;27.48;17.00;;;16.50;99.90;;;;;;5082098;28;20065;-63
2021/07/01 07:51:42;;;;;;;26.85;16.23;;;16.50;99.90;;;;;;5081967;28;20115;-63
2021/07/01 07:54:09;;;;;;;26.67;15.75;;;16.50;99.90;;;;;;5082078;28;20086;-63
2021/07/01 07:56:37;;;;;;;26.40;16.08;;;16.50;99.90;;;;;;5081124;28;20032;-63
2021/07/01 07:59:12;;;;;;;25.42;16.70;;;16.60;99.90;;;;;;5079903;28;20373;-63
2021/07/01 08:01:39;;;;;;;29.08;17.05;;;16.50;99.90;;;;;;5081575;28;20058;-63
2021/07/01 08:04:07;;;;;;;25.63;15.73;;;16.50;99.90;;;;;;5081875;28;20040;-63
2021/07/01 08:06:34;;;;;;;31.73;18.00;;;16.60;99.90;;;;;;5081526;28;20040;-63
2021/07/01 08:09:05;;;;;;;38.67;17.42;;;16.60;99.90;;;;;;5083874;28;20044;-63
2021/07/01 08:11:34;;;;;;;28.95;15.95;;;16.70;99.90;;;;;;5081048;28;20612;-63
2021/07/01 08:14:01;;;;;;;31.90;16.70;;;16.70;99.90;;;;;;5080879;28;20110;-63
2021/07/01 08:16:27;;;;;;;25.73;16.33;;;16.70;99.90;;;;;;5082699;28;20040;-63
2021/07/01 08:18:53;;;;;;;31.88;16.55;;;16.70;99.90;;;;;;5079885;28;20546;-63
2021/07/01 08:21:20;;;;;;;29.98;17.60;;;16.80;99.90;;;;;;5083536;28;20104;-63
2021/07/01 08:23:46;;;;;;;26.67;16.95;;;16.80;99.90;;;;;;5080298;28;20119;-63
2021/07/01 08:26:13;;;;;;;30.02;18.25;;;16.80;99.90;;;;;;5080514;28;20055;-63
2021/07/01 08:28:39;;;;;;;27.90;16.17;;;16.70;99.90;;;;;;5082362;28;20763;-63
2021/07/01 08:31:11;;;;;;;26.02;16.27;;;16.70;99.90;;;;;;5082680;28;20032;-63
2021/07/01 08:33:42;;;;;;;27.27;17.40;;;16.80;99.90;;;;;;5083212;28;20044;-63
2021/07/01 08:36:14;;;;;;;25.50;16.15;;;16.80;99.90;;;;;;5081475;28;20504;-63
2021/07/01 08:38:41;;;;;;;23.55;16.13;;;17.00;99.90;;;;;;5081074;28;20052;-64
2021/07/01 08:41:27;;;;;;;26.95;17.08;;;17.00;99.90;;;;;;5082053;28;20599;-63
2021/07/01 08:44:08;;;;;;;30.63;17.00;;;17.10;99.90;;;;;;5081259;28;20040;-63
2021/07/01 08:47:18;;;;;;;26.27;17.65;;;17.10;99.90;;;;;;5082189;28;20537;-63
2021/07/01 08:49:55;;;;;;;30.45;16.30;;;17.20;99.90;;;;;;5080318;28;20445;-63
2021/07/01 08:52:26;;;;;;;32.33;16.55;;;17.20;99.90;;;;;;5081639;28;20672;-63
2021/07/01 08:55:00;;;;;;;28.48;16.27;;;17.20;99.90;;;;;;5080986;28;20150;-63
2021/07/01 08:57:33;;;;;;;27.42;16.58;;;17.20;99.90;;;;;;5078636;28;20042;-63
2021/07/01 09:00:12;;;;;;;29.00;17.10;;;17.30;99.90;;;;;;5080579;28;20040;-64
2021/07/01 09:02:40;;;;;;;25.90;15.85;;;17.40;99.90;;;;;;5079468;28;20126;-63
2021/07/01 09:05:15;;;;;;;30.80;18.42;;;17.40;99.90;;;;;;5082569;28;20048;-64
2021/07/01 09:07:47;;;;;;;35.92;18.58;;;17.50;99.90;;;;;;5080433;28;20044;-63
2021/07/01 09:10:15;;;;;;;30.85;18.30;;;17.60;99.90;;;;;;5082615;28;20085;-63
2021/07/01 09:12:47;;;;;;;27.92;17.00;;;17.60;99.90;;;;;;5082057;28;20038;-63
2021/07/01 09:15:13;;;;;;;28.00;16.95;;;17.60;99.90;;;;;;5082037;28;20036;-64
2021/07/01 09:17:47;;;;;;;28.77;16.17;;;17.70;99.90;;;;;;5082266;28;20371;-64
2021/07/01 09:20:18;;;;;;;31.63;16.42;;;17.70;99.90;;;;;;5077463;28;20111;-63
2021/07/01 09:22:55;;;;;;;31.02;17.40;;;17.70;99.90;;;;;;5077892;28;20039;-64
2021/07/01 09:25:21;;;;;;;28.33;17.35;;;17.70;99.90;;;;;;5081595;28;20119;-64
2021/07/01 09:27:50;;;;;;;27.58;17.33;;;17.80;99.90;;;;;;5082351;28;20433;-63
2021/07/01 09:30:19;;;;;;;25.67;17.30;;;17.80;99.90;;;;;;5087839;28;20107;-63
2021/07/01 09:32:48;;;;;;;30.75;17.23;;;17.80;99.90;;;;;;5083388;28;20055;-63
2021/07/01 09:35:14;;;;;;;31.33;16.48;;;17.90;99.90;;;;;;5084322;28;20533;-64
2021/07/01 09:37:44;;;;;;;25.00;17.08;;;18.00;99.90;;;;;;5083863;28;20047;-63
2021/07/01 09:40:13;;;;;;;35.60;17.40;;;18.10;99.90;;;;;;5085024;28;20047;-64
2021/07/01 09:42:40;;;;;;;26.85;16.45;;;18.20;99.90;;;;;;5088659;28;20143;-63
2021/07/01 09:45:19;;;;;;;29.45;16.70;;;18.20;99.90;;;;;;5082785;28;20101;-63
2021/07/01 09:47:48;;;;;;;24.27;16.20;;;18.30;99.90;;;;;;5084396;28;20051;-64
2021/07/01 09:50:14;;;;;;;27.17;15.98;;;18.30;99.90;;;;;;5084358;28;20498;-63
2021/07/01 09:52:44;;;;;;;25.05;16.40;;;18.30;99.90;;;;;;5085789;28;20042;-63
2021/07/01 09:55:12;;;;;;;27.30;17.40;;;18.30;99.90;;;;;;5086934;28;20042;-64
2021/07/01 09:57:40;;;;;;;22.80;15.88;;;18.30;99.90;;;;;;5083846;28;20474;-63
2021/07/01 10:00:11;;;;;;;28.80;14.90;;;18.40;99.90;;;;;;5086931;28;20040;-63
2021/07/01 10:02:38;;;;;;;24.13;16.50;;;18.50;99.90;;;;;;5084552;28;20071;-63
2021/07/01 10:05:23;;;;;;;22.20;14.88;;;18.60;99.90;;;;;;5085472;28;20044;-63
2021/07/01 10:07:49;;;;;;;21.35;14.65;;;18.60;99.90;;;;;;5084055;28;20052;-64
2021/07/01 10:10:16;;;;;;;23.73;14.75;;;18.70;99.90;;;;;;5086594;28;20043;-63
2021/07/01 10:12:59;;;;;;;21.52;15.82;;;18.70;99.90;;;;;;5083392;28;20127;-64
2021/07/01 10:15:28;;;;;;;22.77;16.13;;;18.70;99.90;;;;;;5084278;28;20064;-63
2021/07/01 10:18:11;;;;;;;24.80;14.60;;;18.80;99.90;;;;;;5083943;28;20121;-63
2021/07/01 10:20:41;;;;;;;23.10;14.63;;;18.80;99.90;;;;;;5081925;28;20048;-64
2021/07/01 10:23:30;;;;;;;23.60;14.85;;;18.90;99.90;;;;;;5083716;28;20036;-64
2021/07/01 10:26:08;;;;;;;24.48;14.43;;;18.90;99.90;;;;;;5082723;28;20040;-64
2021/07/01 10:28:34;;;;;;;21.30;13.63;;;19.00;99.90;;;;;;5083401;28;20055;-64
2021/07/01 10:31:07;;;;;;;22.42;14.32;;;19.00;99.90;;;;;;5082418;28;20050;-64
2021/07/01 10:33:35;;;;;;;23.52;13.57;;;19.10;99.90;;;;;;5085218;28;20048;-64
2021/07/01 10:36:04;;;;;;;22.70;15.23;;;19.30;99.90;;;;;;5083075;28;20503;-64
2021/07/01 10:38:44;;;;;;;26.83;15.43;;;19.40;99.90;;;;;;5082586;28;20483;-63
2021/07/01 10:41:10;;;;;;;19.40;14.65;;;19.50;99.90;;;;;;5085020;28;20039;-64
2021/07/01 10:43:40;;;;;;;19.52;15.00;;;19.50;99.90;;;;;;5082494;28;20040;-64
2021/07/01 10:46:07;;;;;;;27.00;15.25;;;19.60;99.90;;;;;;5081991;28;20051;-64
2021/07/01 10:48:33;;;;;;;23.35;15.07;;;19.70;99.90;;;;;;5085493;28;20044;-64
2021/07/01 10:51:13;;;;;;;20.40;15.07;;;19.70;99.90;;;;;;5083531;28;20886;-64
2021/07/01 10:53:42;;;;;;;26.35;14.77;;;19.90;99.90;;;;;;5083477;28;20097;-64
2021/07/01 10:56:40;;;;;;;21.50;15.68;;;19.70;99.90;;;;;;5083058;28;20040;-63
2021/07/01 10:59:06;;;;;;;24.50;14.40;;;19.80;99.90;;;;;;5083405;28;20032;-64
2021/07/01 11:01:36;;;;;;;25.83;15.40;;;19.80;99.90;;;;;;5083177;28;20036;-64
2021/07/01 11:04:16;;;;;;;24.95;14.93;;;19.80;99.90;;;;;;5082778;28;20249;-64
2021/07/01 11:06:58;;;;;;;22.80;15.13;;;19.90;99.90;;;;;;5082288;28;20558;-64
2021/07/01 11:09:25;;;;;;;33.17;15.57;;;19.90;99.90;;;;;;5086533;28;20078;-64
2021/07/01 11:12:02;;;;;;;24.35;14.82;;;20.00;99.90;;;;;;5083993;28;20426;-64
2021/07/01 11:14:49;;;;;;;22.80;13.90;;;20.00;99.90;;;;;;5085276;28;20089;-64
2021/07/01 11:17:16;;;;;;;23.33;13.82;;;20.10;99.90;;;;;;5084923;28;20505;-64
2021/07/01 11:19:46;;;;;;;19.73;14.35;;;20.10;99.90;;;;;;5083143;28;20035;-64
2021/07/01 11:22:14;;;;;;;24.08;15.20;;;20.10;99.90;;;;;;5084104;28;20366;-64
2021/07/01 11:24:45;;;;;;;19.55;14.35;;;20.10;99.90;;;;;;5083705;28;20079;-63
2021/07/01 11:27:12;;;;;;;30.15;15.02;;;20.20;99.90;;;;;;5084401;28;20032;-64
2021/07/01 11:29:47;;;;;;;19.67;14.32;;;20.20;99.90;;;;;;5083600;28;20574;-64
2021/07/01 11:32:22;;;;;;;15.27;12.63;;;20.20;99.90;;;;;;5083325;28;20036;-64
2021/07/01 11:34:50;;;;;;;21.10;13.80;;;20.30;99.90;;;;;;5081825;28;20050;-64
2021/07/01 11:37:31;;;;;;;18.10;14.55;;;20.30;99.90;;;;;;5080989;28;20039;-64
2021/07/01 11:40:09;;;;;;;20.33;14.27;;;20.30;99.90;;;;;;5081252;28;20063;-64
2021/07/01 11:42:36;;;;;;;19.20;14.27;;;20.30;99.90;;;;;;5083876;28;20253;-64
2021/07/01 11:45:02;;;;;;;15.80;13.20;;;20.30;99.90;;;;;;5080642;28;20402;-64
2021/07/01 11:47:30;;;;;;;15.35;12.88;;;20.30;99.90;;;;;;5083108;28;20036;-63
2021/07/01 11:49:56;;;;;;;21.65;13.77;;;20.30;99.90;;;;;;5083329;28;20117;-64
2021/07/01 11:52:24;;;;;;;16.83;12.82;;;20.30;99.90;;;;;;5082156;28;20402;-64
2021/07/01 11:54:50;;;;;;;18.73;13.57;;;20.20;99.90;;;;;;5080092;28;20985;-64
2021/07/01 11:57:16;;;;;;;22.98;13.48;;;20.30;99.90;;;;;;5083003;28;20051;-64
2021/07/01 11:59:42;;;;;;;19.88;13.43;;;20.30;99.90;;;;;;5083247;28;20040;-64
2021/07/01 12:02:08;;;;;;;20.73;13.45;;;20.30;99.90;;;;;;5080892;28;20046;-64
2021/07/01 12:04:35;;;;;;;16.10;14.15;;;20.40;99.90;;;;;;5083307;28;20064;-64
2021/07/01 12:07:07;;;;;;;17.13;12.68;;;20.30;99.90;;;;;;5080897;28;20036;-63
2021/07/01 12:09:36;;;;;;;19.70;13.90;;;20.30;99.90;;;;;;5083286;28;20043;-63
2021/07/01 12:12:05;;;;;;;15.70;13.23;;;20.30;99.90;;;;;;5082500;28;20036;-64
2021/07/01 12:14:36;;;;;;;16.92;13.88;;;20.40;99.90;;;;;;5083022;28;20040;-64
2021/07/01 12:17:02;;;;;;;13.52;11.75;;;20.30;99.90;;;;;;5077003;28;20052;-64
2021/07/01 12:19:47;;;;;;;16.35;12.98;;;20.40;99.90;;;;;;5096043;28;20047;-63
2021/07/01 12:22:41;;;;;;;15.05;12.02;;;20.40;99.90;;;;;;5081898;28;20051;-63
2021/07/01 12:25:25;;;;;;;17.02;11.95;;;20.40;99.90;;;;;;5082638;28;20078;-64
2021/07/01 12:28:06;;;;;;;15.93;12.95;;;20.30;99.90;;;;;;5078431;28;20067;-64
2021/07/01 12:30:58;;;;;;;16.90;13.35;;;20.30;99.90;;;;;;5096674;28;20386;-64
2021/07/01 12:33:45;;;;;;;20.55;11.80;;;20.40;99.90;;;;;;5095790;28;20507;-64
2021/07/01 12:36:36;;;;;;;14.50;11.27;;;20.50;99.90;;;;;;5083138;28;20048;-64
2021/07/01 12:39:05;;;;;;;17.08;10.63;;;20.60;99.90;;;;;;5079162;28;20052;-64
2021/07/01 12:41:37;;;;;;;15.70;11.00;;;20.90;99.90;;;;;;5082289;28;20082;-64
2021/07/01 12:44:07;;;;;;;17.45;10.88;;;21.40;99.90;;;;;;5082174;28;20079;-64